Labrea, Brazil
Current Conditions -  °F | °C
As of 8:00 PM on Monday 22 Dec 2014 (Local Time) from SBPV Reporting Station
Few Clouds Few Clouds  
Wind Chill: 77°   Ceiling: Unl
Heat Index: 78°   Visibility: 6mi
Dew Point: 73°   Wind: 0mph
Humidity: 89%   Direction: NA
Pressure: 29.8"   Gusts: NA
Location:  7.26°S, 64.81°W
Report Text: SBPV 230000Z 00000KT 9999 FEW020 FEW023TCU 25/23 Q1009
Loading
Personal Weather Stations






























Interactive Weather Map New forecast layout! Learn more

10-Day Weather Forecast

Advertisements
Track Severe Weather on mobile